Time;durP1;ratioP1;P1;durP2;ratioP2;P2;SDS_P1;SDS_P2;PMS_P1;PMS_P2;Temp;Humidity;BMP_temperature;BMP_pressure;BME280_temperature;BME280_humidity;BME280_pressure;Samples;Min_cycle;Max_cycle;Signal;HPM_P1;HPM_P2
2022/01/31 00:00:56;;;;;;;30.80;4.57;;;;;;;2.99;82.37;101186.72;4916447;29;20290;-45
2022/01/31 00:03:22;;;;;;;30.98;4.32;;;;;;;3.03;82.77;101177.91;4932666;29;20207;-43
2022/01/31 00:05:47;;;;;;;20.67;4.38;;;;;;;2.98;82.59;101175.25;4933346;29;20617;-44
2022/01/31 00:08:20;;;;;;;29.70;4.50;;;;;;;2.98;82.73;101177.03;4933198;29;20210;-45
2022/01/31 00:10:45;;;;;;;25.02;4.35;;;;;;;3.07;82.98;101163.78;4933148;29;20179;-44
2022/01/31 00:13:17;;;;;;;21.50;4.82;;;;;;;3.02;83.31;101149.69;4932764;29;20187;-45
2022/01/31 00:15:47;;;;;;;27.42;4.95;;;;;;;3.00;83.45;101140.84;4932675;29;20168;-44
2022/01/31 00:18:12;;;;;;;22.10;4.47;;;;;;;2.97;84.12;101133.78;4933214;29;20234;-44
2022/01/31 00:20:37;;;;;;;24.92;4.22;;;;;;;2.97;84.37;101120.53;4933283;29;20183;-44
2022/01/31 00:23:03;;;;;;;26.70;5.13;;;;;;;2.94;84.81;101104.69;4932525;29;20167;-46
2022/01/31 00:25:28;;;;;;;27.80;5.20;;;;;;;2.88;85.04;101100.28;4933162;29;20180;-44
2022/01/31 00:27:54;;;;;;;25.42;4.63;;;;;;;2.97;85.35;101094.06;4932953;29;20188;-42
2022/01/31 00:30:19;;;;;;;30.38;4.97;;;;;;;2.96;85.28;101080.88;4933028;29;20179;-45
2022/01/31 00:32:45;;;;;;;33.63;5.13;;;;;;;2.91;85.24;101069.41;4933135;29;20262;-42
2022/01/31 00:35:11;;;;;;;30.02;5.40;;;;;;;2.88;85.84;101057.06;4932706;29;20171;-43
2022/01/31 00:37:37;;;;;;;35.17;6.15;;;;;;;2.84;86.07;101053.56;4932968;29;20202;-43
2022/01/31 00:40:05;;;;;;;26.90;4.40;;;;;;;2.83;86.43;101037.69;4932418;29;20183;-45
2022/01/31 00:42:31;;;;;;;26.38;4.88;;;;;;;2.74;87.03;101037.72;4932302;29;20168;-44
2022/01/31 00:45:08;;;;;;;32.55;5.30;;;;;;;2.65;87.55;101035.97;4915561;29;20231;-45
2022/01/31 00:47:34;;;;;;;32.28;5.43;;;;;;;2.59;88.08;101030.69;4932503;29;20194;-44
2022/01/31 00:50:08;;;;;;;34.33;5.13;;;;;;;2.62;88.79;101013.06;4915882;29;20255;-45
2022/01/31 00:52:34;;;;;;;33.85;6.00;;;;;;;2.67;88.79;101002.47;4916134;29;20163;-45
2022/01/31 00:55:00;;;;;;;32.95;6.05;;;;;;;2.61;89.46;100986.59;4932604;29;20175;-47
2022/01/31 00:57:26;;;;;;;36.10;5.43;;;;;;;2.62;90.10;100986.59;4932171;29;20362;-45
2022/01/31 00:59:51;;;;;;;26.63;4.43;;;;;;;2.62;90.37;100985.69;4931027;29;20262;-44
2022/01/31 01:02:22;;;;;;;30.00;5.90;;;;;;;2.62;90.64;100976.03;4932447;29;20283;-44
2022/01/31 01:04:48;;;;;;;42.60;7.22;;;;;;;2.59;90.82;100969.84;4919087;29;20578;-43
2022/01/31 01:07:14;;;;;;;30.52;6.35;;;;;;;2.59;91.28;100961.94;4935280;29;20254;-44
2022/01/31 01:09:41;;;;;;;38.65;6.10;;;;;;;2.64;91.27;100963.66;4935272;29;20167;-43
2022/01/31 01:12:09;;;;;;;33.00;5.65;;;;;;;2.64;90.91;100955.72;4934371;29;20245;-46
2022/01/31 01:14:34;;;;;;;26.95;5.00;;;;;;;2.66;91.02;100951.28;4936455;29;20164;-45
2022/01/31 01:17:00;;;;;;;38.40;6.05;;;;;;;2.67;91.00;100958.38;4936024;29;20519;-44
2022/01/31 01:19:25;;;;;;;34.15;5.80;;;;;;;2.61;90.99;100937.22;4936732;29;20183;-46
2022/01/31 01:21:51;;;;;;;33.78;6.00;;;;;;;2.53;90.97;100936.34;4934305;29;20788;-43
2022/01/31 01:24:16;;;;;;;28.15;5.50;;;;;;;2.54;91.36;100924.91;4935869;29;20684;-44
2022/01/31 01:26:43;;;;;;;32.72;5.57;;;;;;;2.62;91.27;100916.94;4936167;29;20195;-46
2022/01/31 01:29:10;;;;;;;25.95;6.50;;;;;;;2.68;90.88;100901.91;4934533;29;20282;-46
2022/01/31 01:31:36;;;;;;;35.65;5.72;;;;;;;2.61;90.53;100894.03;4934553;29;20177;-45
2022/01/31 01:34:02;;;;;;;34.10;5.70;;;;;;;2.48;90.67;100887.91;4936002;29;20258;-46
2022/01/31 01:36:28;;;;;;;37.90;6.18;;;;;;;2.51;90.67;100890.53;4934570;29;20265;-45
2022/01/31 01:38:54;;;;;;;31.33;5.30;;;;;;;2.48;90.75;100891.44;4934487;29;20194;-45
2022/01/31 01:41:19;;;;;;;34.85;5.90;;;;;;;2.53;90.60;100879.94;4935483;29;20179;-44
2022/01/31 01:43:44;;;;;;;37.50;7.20;;;;;;;2.43;90.61;100873.84;4934241;29;20286;-44
2022/01/31 01:46:10;;;;;;;39.95;5.80;;;;;;;2.44;90.67;100875.59;4934490;29;20273;-43
2022/01/31 01:48:35;;;;;;;29.85;5.72;;;;;;;2.49;90.63;100876.44;4934258;29;20199;-42
2022/01/31 01:51:02;;;;;;;43.38;5.93;;;;;;;2.47;90.43;100865.88;4934652;29;20178;-43
2022/01/31 01:53:28;;;;;;;32.95;5.95;;;;;;;2.41;90.50;100871.19;4933086;29;20180;-44
2022/01/31 01:55:54;;;;;;;35.92;6.15;;;;;;;2.46;90.83;100858.81;4934408;29;20192;-44
2022/01/31 01:58:25;;;;;;;34.40;6.88;;;;;;;2.41;90.87;100843.88;4934580;29;20552;-43
2022/01/31 02:01:02;;;;;;;29.48;5.30;;;;;;;2.38;90.46;100836.81;4934133;29;20651;-42
2022/01/31 02:03:42;;;;;;;28.02;5.65;;;;;;;2.33;90.84;100827.16;4933858;29;20226;-43
2022/01/31 02:06:08;;;;;;;30.85;6.00;;;;;;;2.29;90.82;100818.34;4933980;29;20638;-45
2022/01/31 02:08:42;;;;;;;35.20;5.93;;;;;;;2.39;90.72;100806.00;4933939;29;20198;-42
2022/01/31 02:11:11;;;;;;;28.30;5.10;;;;;;;2.38;90.59;100805.09;4933728;29;20227;-43
2022/01/31 02:13:42;;;;;;;32.45;5.57;;;;;;;2.48;90.84;100798.88;4933817;29;20176;-43
2022/01/31 02:16:09;;;;;;;37.15;5.30;;;;;;;2.38;90.59;100789.22;4929353;29;20727;-45
2022/01/31 02:18:54;;;;;;;33.42;5.93;;;;;;;2.36;90.45;100793.66;4936647;29;20193;-44
2022/01/31 02:21:42;;;;;;;34.70;6.47;;;;;;;2.44;90.09;100783.03;4936572;29;20171;-44
2022/01/31 02:24:26;;;;;;;36.85;5.43;;;;;;;2.34;90.17;100782.22;4953466;29;20254;-43
2022/01/31 02:27:14;;;;;;;29.77;6.03;;;;;;;2.32;90.29;100773.41;4943534;28;20583;-42
2022/01/31 02:29:40;;;;;;;30.67;5.80;;;;;;;2.28;90.10;100769.03;4953541;29;20179;-46
2022/01/31 02:32:06;;;;;;;32.95;5.78;;;;;;;2.28;90.56;100771.66;4936254;29;20237;-43
2022/01/31 02:34:32;;;;;;;33.55;6.75;;;;;;;2.26;91.13;100762.88;4953979;29;20424;-44
2022/01/31 02:36:57;;;;;;;31.58;6.15;;;;;;;2.31;91.18;100750.50;4936012;29;20203;-42
2022/01/31 02:39:23;;;;;;;33.97;6.20;;;;;;;2.28;91.34;100760.22;4936420;29;20193;-44
2022/01/31 02:41:49;;;;;;;33.50;5.63;;;;;;;2.25;91.40;100751.41;4936132;29;20879;-44
2022/01/31 02:44:15;;;;;;;35.92;6.03;;;;;;;2.22;91.78;100756.72;4936847;29;20699;-45
2022/01/31 02:46:55;;;;;;;33.00;4.82;;;;;;;2.05;93.05;100734.78;4936262;29;20208;-43
2022/01/31 02:49:25;;;;;;;40.63;5.97;;;;;;;1.93;93.79;100727.78;4936050;29;20262;-43
2022/01/31 02:51:58;;;;;;;30.40;5.72;;;;;;;1.93;94.71;100711.94;4952847;29;20676;-46
2022/01/31 02:54:25;;;;;;;33.88;5.60;;;;;;;2.04;95.10;100690.75;4936267;29;20165;-43
2022/01/31 02:56:50;;;;;;;36.65;6.20;;;;;;;1.76;95.74;100687.38;4936361;29;20695;-46
2022/01/31 02:59:16;;;;;;;38.03;6.05;;;;;;;1.77;96.43;100686.47;4936218;29;20229;-45
2022/01/31 03:01:41;;;;;;;31.70;6.28;;;;;;;1.85;97.39;100677.63;4936130;29;20193;-46
2022/01/31 03:04:07;;;;;;;30.50;6.30;;;;;;;1.75;97.96;100664.47;4953885;29;20198;-46
2022/01/31 03:06:34;;;;;;;29.67;5.43;;;;;;;1.72;98.53;100651.28;4935998;28;20597;-47
2022/01/31 03:09:00;;;;;;;40.03;6.85;;;;;;;1.59;99.15;100638.13;4936432;29;20174;-47
2022/01/31 03:11:34;;;;;;;28.50;5.22;;;;;;;1.65;99.35;100622.25;4931882;29;20187;-47
2022/01/31 03:14:03;;;;;;;31.30;6.13;;;;;;;1.55;100.00;100609.09;4934127;29;20172;-46
2022/01/31 03:16:30;;;;;;;22.65;5.25;;;;;;;1.60;100.00;100609.97;4932526;29;20227;-48
2022/01/31 03:19:18;;;;;;;44.63;6.32;;;;;;;1.63;100.00;100589.69;4932464;29;20234;-47
2022/01/31 03:21:47;;;;;;;30.80;5.80;;;;;;;1.62;100.00;100581.81;4932201;29;20183;-45
2022/01/31 03:24:13;;;;;;;27.23;6.18;;;;;;;1.66;100.00;100575.59;4933490;29;20254;-48
2022/01/31 03:26:39;;;;;;;30.58;5.57;;;;;;;1.69;100.00;100572.09;4933855;29;20187;-48
2022/01/31 03:29:05;;;;;;;29.80;6.00;;;;;;;1.57;100.00;100555.41;4933116;29;20183;-46
2022/01/31 03:31:31;;;;;;;35.08;6.57;;;;;;;1.61;100.00;100561.56;4932561;29;20224;-48
2022/01/31 03:33:58;;;;;;;38.28;6.25;;;;;;;1.53;100.00;100551.06;4917119;29;20178;-45
2022/01/31 03:36:23;;;;;;;33.20;6.05;;;;;;;1.54;100.00;100547.50;4932251;29;20179;-48
2022/01/31 03:38:49;;;;;;;20.65;4.32;;;;;;;1.63;100.00;100536.88;4932257;29;20190;-48
2022/01/31 03:41:19;;;;;;;30.58;5.63;;;;;;;1.47;100.00;100540.53;4931922;29;20214;-48
2022/01/31 03:43:44;;;;;;;33.03;5.95;;;;;;;1.41;100.00;100533.50;4932828;29;20589;-45
2022/01/31 03:46:10;;;;;;;30.70;6.03;;;;;;;1.38;100.00;100522.09;4933648;29;20184;-47
2022/01/31 03:48:36;;;;;;;40.22;5.97;;;;;;;1.38;100.00;100514.19;4931706;29;20190;-48
2022/01/31 03:51:10;;;;;;;36.15;6.53;;;;;;;1.31;100.00;100520.34;4932149;29;20186;-48
2022/01/31 03:53:35;;;;;;;35.03;5.72;;;;;;;1.17;100.00;100500.19;4931316;29;20691;-49
2022/01/31 03:56:00;;;;;;;30.33;6.18;;;;;;;1.19;100.00;100497.56;4933591;29;20230;-47
2022/01/31 03:58:32;;;;;;;30.20;5.35;;;;;;;1.15;100.00;100487.91;4931862;29;20763;-49
2022/01/31 04:01:02;;;;;;;33.00;5.68;;;;;;;1.14;100.00;100479.13;4932041;29;20581;-48
2022/01/31 04:03:27;;;;;;;35.50;5.95;;;;;;;1.07;100.00;100472.09;4933105;29;20541;-49
2022/01/31 04:05:53;;;;;;;35.53;5.43;;;;;;;1.04;100.00;100469.50;4932891;29;20179;-46
2022/01/31 04:08:19;;;;;;;34.67;4.97;;;;;;;1.09;100.00;100457.13;4931696;29;20195;-48
2022/01/31 04:10:44;;;;;;;37.60;5.85;;;;;;;1.14;100.00;100452.75;4932954;29;20527;-47
2022/01/31 04:13:10;;;;;;;34.97;6.35;;;;;;;1.00;100.00;100444.00;4932878;29;20207;-48
2022/01/31 04:15:36;;;;;;;34.35;5.45;;;;;;;1.11;100.00;100436.03;4928582;29;20218;-46
2022/01/31 04:18:03;;;;;;;33.10;6.70;;;;;;;1.06;100.00;100428.16;4932308;29;20213;-47
2022/01/31 04:20:28;;;;;;;39.13;6.63;;;;;;;1.08;100.00;100426.38;4916254;29;20194;-48
2022/01/31 04:23:01;;;;;;;33.83;5.93;;;;;;;1.03;100.00;100412.34;4908322;29;20204;-45
2022/01/31 04:28:16;;;;;;;30.75;5.55;;;;;;;1.00;100.00;100394.75;4936805;29;20215;-48
2022/01/31 04:33:20;;;;;;;35.03;5.93;;;;;;;0.96;100.00;100374.59;4932828;29;20190;-46
2022/01/31 04:35:46;;;;;;;34.85;6.00;;;;;;;0.91;100.00;100371.09;4932475;29;20663;-47
2022/01/31 04:38:12;;;;;;;34.78;5.80;;;;;;;0.94;100.00;100375.47;4932400;29;20190;-44
2022/01/31 04:40:37;;;;;;;35.97;6.72;;;;;;;0.89;100.00;100361.44;4933100;29;20267;-47
2022/01/31 04:43:03;;;;;;;35.08;6.68;;;;;;;0.92;100.00;100348.22;4932566;29;20176;-48
2022/01/31 04:45:28;;;;;;;33.10;6.55;;;;;;;0.91;100.00;100346.47;4933060;29;20221;-46
2022/01/31 04:47:54;;;;;;;35.15;6.50;;;;;;;0.79;100.00;100342.16;4915910;29;20235;-51
2022/01/31 04:50:19;;;;;;;34.83;5.90;;;;;;;0.81;100.00;100333.34;4932823;29;20179;-45
2022/01/31 04:52:44;;;;;;;36.80;6.40;;;;;;;0.80;100.00;100326.31;4932303;29;20188;-45
2022/01/31 04:55:11;;;;;;;27.23;6.65;;;;;;;0.76;100.00;100327.22;4932894;29;20163;-48
2022/01/31 04:57:36;;;;;;;38.72;5.82;;;;;;;0.77;100.00;100314.94;4932916;29;20233;-47
2022/01/31 05:00:05;;;;;;;38.92;8.07;;;;;;;0.78;100.00;100311.41;4932883;29;20203;-45
2022/01/31 05:02:30;;;;;;;30.52;6.53;;;;;;;0.76;100.00;100303.50;4932254;29;20190;-46
2022/01/31 05:04:55;;;;;;;36.70;6.50;;;;;;;0.69;100.00;100299.16;4932846;29;20566;-46
2022/01/31 05:07:21;;;;;;;35.53;7.32;;;;;;;0.69;100.00;100285.09;4932777;29;20596;-46
2022/01/31 05:09:47;;;;;;;36.35;6.50;;;;;;;0.65;100.00;100286.88;4933436;29;20274;-46
2022/01/31 05:12:13;;;;;;;39.95;6.45;;;;;;;0.68;100.00;100276.31;4932432;29;20576;-46
2022/01/31 05:14:38;;;;;;;35.70;7.85;;;;;;;0.63;100.00;100271.94;4932607;29;20754;-47
2022/01/31 05:17:04;;;;;;;34.60;7.95;;;;;;;0.55;100.00;100274.66;4932998;29;20195;-45
2022/01/31 05:19:29;;;;;;;30.63;6.68;;;;;;;0.57;100.00;100276.38;4932515;29;20280;-46
2022/01/31 05:21:54;;;;;;;28.48;6.68;;;;;;;0.54;100.00;100268.47;4932414;29;20356;-48
2022/01/31 05:24:20;;;;;;;34.10;6.13;;;;;;;0.59;100.00;100276.34;4932251;29;20195;-45
2022/01/31 05:26:50;;;;;;;36.33;6.22;;;;;;;0.58;100.00;100272.84;4932518;29;20218;-47
2022/01/31 05:29:19;;;;;;;30.88;6.57;;;;;;;0.57;100.00;100270.25;4915797;29;20163;-45
2022/01/31 05:31:45;;;;;;;37.20;7.00;;;;;;;0.44;100.00;100258.00;4932195;29;20601;-48
2022/01/31 05:34:12;;;;;;;31.73;6.75;;;;;;;0.39;100.00;100251.03;4932228;29;20231;-47
2022/01/31 05:36:39;;;;;;;31.73;7.07;;;;;;;0.38;100.00;100237.84;4932415;29;20175;-47
2022/01/31 05:39:04;;;;;;;32.83;6.28;;;;;;;0.41;100.00;100237.81;4932756;29;20174;-48
2022/01/31 05:41:30;;;;;;;31.10;7.53;;;;;;;0.47;100.00;100242.19;4915049;29;20172;-46
2022/01/31 05:43:55;;;;;;;33.88;6.97;;;;;;;0.37;100.00;100250.16;4931984;29;20450;-48
2022/01/31 05:46:20;;;;;;;25.25;7.13;;;;;;;0.39;100.00;100240.50;4932842;29;20164;-46
2022/01/31 05:48:46;;;;;;;29.20;6.95;;;;;;;0.35;100.00;100228.22;4934152;29;20188;-46
2022/01/31 05:51:17;;;;;;;26.88;6.18;;;;;;;0.36;100.00;100222.03;4935898;29;20250;-47
2022/01/31 05:53:44;;;;;;;33.50;7.43;;;;;;;0.36;100.00;100216.78;4935520;29;20195;-46
2022/01/31 05:56:10;;;;;;;32.47;6.45;;;;;;;0.40;100.00;100213.25;4935629;29;20187;-47
2022/01/31 05:58:36;;;;;;;29.58;6.03;;;;;;;0.43;100.00;100219.38;4935734;29;20207;-49
2022/01/31 06:01:02;;;;;;;30.45;6.50;;;;;;;0.43;100.00;100211.47;4935734;29;20655;-46
2022/01/31 06:03:27;;;;;;;25.63;6.45;;;;;;;0.44;100.00;100222.00;4935174;29;20251;-49
2022/01/31 06:05:53;;;;;;;21.85;6.15;;;;;;;0.41;100.00;100232.56;4935724;29;20274;-43
2022/01/31 06:08:18;;;;;;;28.58;6.38;;;;;;;0.44;100.00;100218.47;4918353;29;20248;-47
2022/01/31 06:10:46;;;;;;;17.63;5.22;;;;;;;0.40;100.00;100231.69;4935141;29;20183;-49
2022/01/31 06:13:11;;;;;;;31.80;6.38;;;;;;;0.49;100.00;100225.47;4934802;29;20168;-46
2022/01/31 06:15:37;;;;;;;29.63;7.57;;;;;;;0.49;100.00;100224.63;4934858;29;20559;-46
2022/01/31 06:18:03;;;;;;;25.15;5.53;;;;;;;0.51;100.00;100222.84;4935337;29;20322;-46
2022/01/31 06:20:28;;;;;;;30.13;6.68;;;;;;;0.46;100.00;100216.72;4934577;29;20171;-49
2022/01/31 06:22:54;;;;;;;30.23;6.45;;;;;;;0.46;100.00;100225.50;4934961;29;20251;-46
2022/01/31 06:25:20;;;;;;;25.38;7.13;;;;;;;0.50;100.00;100213.16;4935026;29;20273;-44
2022/01/31 06:27:47;;;;;;;23.33;6.40;;;;;;;0.47;100.00;100215.84;4917987;29;20207;-45
2022/01/31 06:30:13;;;;;;;24.92;6.18;;;;;;;0.44;100.00;100205.31;4918209;29;20219;-47
2022/01/31 06:32:44;;;;;;;30.27;7.28;;;;;;;0.41;100.00;100201.78;4917184;29;20187;-49
2022/01/31 06:35:10;;;;;;;21.38;6.15;;;;;;;0.45;100.00;100207.06;4935203;29;20502;-45
2022/01/31 06:37:36;;;;;;;25.70;6.95;;;;;;;0.48;100.00;100186.84;4934779;29;20195;-48
2022/01/31 06:40:02;;;;;;;20.80;7.15;;;;;;;0.53;100.00;100189.44;4934122;29;20263;-47
2022/01/31 06:42:28;;;;;;;31.88;7.22;;;;;;;0.49;100.00;100185.94;4934027;29;20854;-47
2022/01/31 06:44:53;;;;;;;34.00;8.73;;;;;;;0.48;100.00;100184.22;4934005;29;20593;-46
2022/01/31 06:47:19;;;;;;;28.55;8.68;;;;;;;0.51;100.00;100183.31;4934284;29;20187;-45
2022/01/31 06:49:46;;;;;;;30.60;8.60;;;;;;;0.47;100.00;100178.94;4934421;29;20175;-46
2022/01/31 06:52:11;;;;;;;32.92;8.95;;;;;;;0.49;100.00;100177.19;4932660;29;20218;-47
2022/01/31 06:54:37;;;;;;;25.45;8.27;;;;;;;0.49;100.00;100178.03;4934493;29;20172;-47
2022/01/31 06:57:04;;;;;;;35.40;8.93;;;;;;;0.49;100.00;100182.44;4934403;29;20223;-47
2022/01/31 06:59:30;;;;;;;35.88;12.15;;;;;;;0.67;100.00;100182.28;4933107;29;20424;-48
2022/01/31 07:01:55;;;;;;;42.42;12.55;;;;;;;0.56;100.00;100182.38;4933587;29;20417;-45
2022/01/31 07:04:21;;;;;;;27.17;8.95;;;;;;;0.56;100.00;100176.22;4933717;29;20588;-45
2022/01/31 07:06:46;;;;;;;28.33;9.25;;;;;;;0.56;100.00;100170.97;4934209;29;20724;-47
2022/01/31 07:09:12;;;;;;;36.45;10.20;;;;;;;0.55;100.00;100171.84;4934578;29;20584;-47
2022/01/31 07:11:40;;;;;;;37.17;8.50;;;;;;;0.49;100.00;100169.28;4916753;29;20592;-47
2022/01/31 07:14:13;;;;;;;45.15;9.75;;;;;;;0.53;100.00;100169.22;4934159;29;20174;-48
2022/01/31 07:16:39;;;;;;;33.88;9.27;;;;;;;0.56;100.00;100168.31;4933668;29;20191;-49
2022/01/31 07:19:07;;;;;;;31.95;9.23;;;;;;;0.53;100.00;100160.47;4934081;29;20612;-47
2022/01/31 07:21:54;;;;;;;29.40;9.23;;;;;;;0.53;100.00;100160.47;4933127;29;20650;-46
2022/01/31 07:24:44;;;;;;;27.02;7.97;;;;;;;0.57;100.00;100156.91;4933677;29;20347;-47
2022/01/31 07:27:10;;;;;;;27.63;8.27;;;;;;;0.55;100.00;100170.09;4933517;29;20274;-48
2022/01/31 07:29:35;;;;;;;28.85;7.78;;;;;;;0.57;100.00;100160.41;4933686;29;20188;-49
2022/01/31 07:32:01;;;;;;;33.83;8.75;;;;;;;0.56;100.00;100160.41;4932904;29;20175;-48
2022/01/31 07:34:27;;;;;;;30.05;8.18;;;;;;;0.58;100.00;100162.16;4916399;29;20168;-47
2022/01/31 07:36:53;;;;;;;30.40;8.57;;;;;;;0.59;100.00;100160.38;4933395;29;20636;-47
2022/01/31 07:39:19;;;;;;;32.75;8.70;;;;;;;0.65;100.00;100167.38;4933505;29;20168;-47
2022/01/31 07:41:47;;;;;;;36.17;8.20;;;;;;;0.61;100.00;100177.97;4933173;29;20587;-48
2022/01/31 07:44:12;;;;;;;28.55;8.32;;;;;;;0.74;100.00;100167.28;4934530;29;20199;-45
2022/01/31 07:46:38;;;;;;;24.00;6.95;;;;;;;0.75;100.00;100169.91;4933650;29;20189;-47
2022/01/31 07:49:05;;;;;;;31.65;7.35;;;;;;;0.73;100.00;100170.81;4933139;29;20212;-47
2022/01/31 07:51:31;;;;;;;30.80;7.93;;;;;;;0.72;100.00;100174.34;4916075;29;20660;-46
2022/01/31 07:53:57;;;;;;;29.15;7.60;;;;;;;0.75;100.00;100175.19;4932960;29;20178;-47
2022/01/31 07:56:22;;;;;;;27.73;7.43;;;;;;;0.69;100.00;100182.28;4932564;29;20191;-49
2022/01/31 07:58:48;;;;;;;45.50;8.52;;;;;;;0.65;100.00;100172.66;4932362;29;20188;-49
2022/01/31 08:01:14;;;;;;;32.58;7.25;;;;;;;0.73;100.00;100184.88;4923530;29;20203;-46
2022/01/31 08:03:39;;;;;;;33.83;8.13;;;;;;;0.69;100.00;100179.66;4932183;29;20640;-47
2022/01/31 08:06:05;;;;;;;34.13;7.15;;;;;;;0.65;100.00;100180.56;4932479;29;20171;-44
2022/01/31 08:08:31;;;;;;;36.38;8.43;;;;;;;0.65;100.00;100165.59;4933027;29;20218;-48
2022/01/31 08:10:57;;;;;;;38.30;8.73;;;;;;;0.64;100.00;100173.56;4932420;29;20183;-46
2022/01/31 08:13:25;;;;;;;32.70;7.32;;;;;;;0.67;100.00;100166.47;4920812;29;20188;-49
2022/01/31 08:18:44;;;;;;;35.63;9.50;;;;;;;0.68;100.00;100165.59;4925320;29;20195;-48
2022/01/31 08:21:12;;;;;;;40.67;8.60;;;;;;;0.68;100.00;100173.50;4928966;29;20564;-46
2022/01/31 08:23:38;;;;;;;34.25;7.90;;;;;;;0.66;100.00;100172.63;4932339;29;20187;-46
2022/01/31 08:26:10;;;;;;;34.92;9.05;;;;;;;0.57;100.00;100175.34;4932960;29;20172;-49
2022/01/31 08:28:40;;;;;;;37.17;8.10;;;;;;;0.64;100.00;100177.06;4903049;29;20221;-48
2022/01/31 08:31:11;;;;;;;32.45;8.55;;;;;;;0.71;100.00;100184.00;4932823;29;20179;-49
2022/01/31 08:33:42;;;;;;;30.92;7.75;;;;;;;0.63;100.00;100191.09;4931060;29;20247;-46
2022/01/31 08:36:08;;;;;;;34.28;8.57;;;;;;;0.62;100.00;100184.09;4932955;29;20156;-46
2022/01/31 08:38:38;;;;;;;39.10;8.93;;;;;;;0.60;100.00;100194.66;4932754;29;20334;-46
2022/01/31 08:41:03;;;;;;;31.83;8.18;;;;;;;0.64;100.00;100197.28;4932750;29;20644;-47
2022/01/31 08:43:29;;;;;;;32.08;8.75;;;;;;;0.71;100.00;100180.50;4932391;29;20171;-47
2022/01/31 08:45:56;;;;;;;40.33;9.20;;;;;;;0.74;100.00;100191.00;4932170;29;20525;-47
2022/01/31 08:48:23;;;;;;;32.55;8.75;;;;;;;0.74;100.00;100183.97;4932481;29;20199;-46
2022/01/31 08:50:49;;;;;;;34.30;8.50;;;;;;;0.76;100.00;100198.03;4932713;29;20167;-44
2022/01/31 08:53:14;;;;;;;34.25;8.45;;;;;;;0.71;100.00;100185.78;4932012;29;20290;-49
2022/01/31 08:55:54;;;;;;;37.00;8.30;;;;;;;0.74;100.00;100178.69;4932673;29;20313;-46
2022/01/31 08:58:21;;;;;;;32.53;7.75;;;;;;;0.74;100.00;100176.06;4929493;29;20287;-47
2022/01/31 09:00:58;;;;;;;32.63;8.43;;;;;;;0.77;100.00;100167.28;4932444;29;20179;-48
2022/01/31 09:06:06;;;;;;;35.40;8.93;;;;;;;0.78;100.00;100169.88;4935913;29;20196;-48
2022/01/31 09:08:32;;;;;;;40.90;8.23;;;;;;;0.87;100.00;100168.91;4931449;29;20211;-45
2022/01/31 09:10:57;;;;;;;38.75;8.57;;;;;;;0.81;100.00;100175.16;4930220;29;20542;-46
2022/01/31 09:13:23;;;;;;;30.85;9.50;;;;;;;0.90;100.00;100181.22;4930858;29;20231;-47
2022/01/31 09:15:49;;;;;;;31.77;8.02;;;;;;;0.95;100.00;100192.59;4929921;29;20172;-48
2022/01/31 09:18:15;;;;;;;37.97;7.95;;;;;;;0.98;100.00;100179.38;4931275;29;20627;-48
2022/01/31 09:20:41;;;;;;;29.65;7.93;;;;;;;0.97;100.00;100196.09;4931400;29;20191;-49
2022/01/31 09:23:06;;;;;;;36.90;8.07;;;;;;;1.00;100.00;100201.34;4931445;29;20640;-48
2022/01/31 09:25:32;;;;;;;32.15;8.60;;;;;;;1.10;100.00;100203.00;4932894;29;20588;-48
2022/01/31 09:27:59;;;;;;;37.95;7.80;;;;;;;1.19;100.00;100204.69;4934515;29;20290;-47
2022/01/31 09:30:26;;;;;;;39.90;8.38;;;;;;;1.25;100.00;100196.72;4934665;29;20207;-47
2022/01/31 09:32:56;;;;;;;29.83;8.45;;;;;;;1.39;100.00;100204.47;4934545;29;20266;-47
2022/01/31 09:35:22;;;;;;;29.83;7.78;;;;;;;1.34;100.00;100207.16;4935053;29;20179;-48
2022/01/31 09:37:48;;;;;;;40.00;7.45;;;;;;;1.43;100.00;100199.13;4935113;29;20230;-48
2022/01/31 09:40:18;;;;;;;36.80;7.75;;;;;;;1.43;100.00;100203.53;4935738;29;20172;-45
2022/01/31 09:48:32;;;;;;;35.58;7.35;;;;;;;1.45;100.00;100193.84;4924394;29;20274;-46
2022/01/31 09:51:00;;;;;;;31.95;8.07;;;;;;;1.42;100.00;100184.19;4935240;29;20175;-45
2022/01/31 09:53:25;;;;;;;34.08;8.15;;;;;;;1.36;100.00;100194.81;4925435;29;20175;-45
2022/01/31 09:55:52;;;;;;;26.40;8.45;;;;;;;1.42;100.00;100192.13;4935470;29;20527;-45
2022/01/31 09:58:19;;;;;;;29.63;8.07;;;;;;;1.50;100.00;100193.78;4935855;29;20575;-49
2022/01/31 10:00:44;;;;;;;25.05;8.00;;;;;;;1.36;100.00;100192.19;4935471;29;20655;-48
2022/01/31 10:03:10;;;;;;;29.58;8.55;;;;;;;1.50;100.00;100204.34;4930957;29;20196;-47
2022/01/31 10:05:36;;;;;;;30.20;7.80;;;;;;;1.52;100.00;100192.88;4937560;29;20201;-47
2022/01/31 10:08:11;;;;;;;30.95;8.73;;;;;;;1.55;100.00;100190.22;4933483;29;20710;-48
2022/01/31 10:10:40;;;;;;;23.95;7.75;;;;;;;1.55;100.00;100186.69;4934293;29;20647;-48
2022/01/31 10:16:28;;;;;;;28.13;9.52;;;;;;;1.63;100.00;100204.19;4935185;29;20187;-49
2022/01/31 10:19:09;;;;;;;31.20;10.38;;;;;;;1.50;100.00;100202.59;4935265;29;20163;-45
2022/01/31 10:21:52;;;;;;;26.85;9.30;;;;;;;1.57;100.00;100213.94;4934305;29;20633;-47
2022/01/31 10:24:18;;;;;;;30.15;9.13;;;;;;;1.65;100.00;100222.66;4934357;29;20239;-46
2022/01/31 10:26:44;;;;;;;22.50;8.27;;;;;;;1.71;100.00;100227.00;4934884;29;20241;-49
2022/01/31 10:29:12;;;;;;;28.77;9.68;;;;;;;1.88;100.00;100238.25;4934988;29;20617;-48
2022/01/31 10:31:51;;;;;;;22.20;8.25;;;;;;;1.65;100.00;100254.34;4917743;29;20247;-48
2022/01/31 10:34:22;;;;;;;31.48;9.38;;;;;;;1.57;100.00;100264.97;4933968;29;20242;-47
2022/01/31 10:36:48;;;;;;;27.77;8.43;;;;;;;1.64;100.00;100271.09;4935208;29;20265;-48
2022/01/31 10:43:12;;;;;;;27.17;9.13;;;;;;;1.60;100.00;100280.81;4934575;29;20606;-48
2022/01/31 10:45:56;;;;;;;28.48;9.48;;;;;;;1.68;100.00;100285.97;4875380;29;20600;-47
2022/01/31 10:54:04;;;;;;;28.25;9.45;;;;;;;1.69;100.00;100286.88;4934362;29;20160;-44
2022/01/31 10:56:51;;;;;;;21.98;9.10;;;;;;;1.72;100.00;100278.91;4934303;29;20322;-47
2022/01/31 10:59:19;;;;;;;23.63;8.73;;;;;;;1.74;100.00;100278.00;4917030;29;20171;-46
2022/01/31 11:01:47;;;;;;;28.65;9.35;;;;;;;1.63;100.00;100275.47;4934040;29;20171;-45
2022/01/31 11:04:15;;;;;;;30.38;9.30;;;;;;;1.82;100.00;100281.44;4933956;29;20255;-47
2022/01/31 11:06:46;;;;;;;25.38;9.00;;;;;;;1.63;100.00;100279.88;4934003;29;20183;-47
2022/01/31 11:09:14;;;;;;;21.83;9.63;;;;;;;1.66;100.00;100277.19;4935387;29;20188;-41
2022/01/31 11:11:42;;;;;;;22.75;8.35;;;;;;;1.76;100.00;100284.16;4934360;29;20295;-40
2022/01/31 11:14:09;;;;;;;27.25;9.98;;;;;;;1.96;100.00;100280.41;4921972;29;20183;-45
2022/01/31 11:16:36;;;;;;;27.65;9.85;;;;;;;2.05;100.00;100293.50;4934334;29;20175;-44
2022/01/31 11:19:07;;;;;;;25.85;9.48;;;;;;;1.86;100.00;100311.34;4934130;29;20182;-45
2022/01/31 11:21:35;;;;;;;27.13;10.18;;;;;;;1.92;100.00;100303.31;4933739;29;20188;-45
2022/01/31 11:24:04;;;;;;;26.67;9.25;;;;;;;2.17;100.00;100308.34;4933974;29;20195;-43
2022/01/31 11:26:39;;;;;;;25.05;8.88;;;;;;;2.30;99.93;100317.00;4933939;29;20340;-46
2022/01/31 11:29:06;;;;;;;25.63;9.25;;;;;;;1.98;99.63;100320.88;4934037;29;20171;-45
2022/01/31 11:31:35;;;;;;;29.60;8.75;;;;;;;2.02;99.90;100323.47;4933471;29;20172;-45
2022/01/31 11:34:02;;;;;;;28.35;9.52;;;;;;;2.17;99.89;100324.19;4933855;29;20163;-44
2022/01/31 11:36:29;;;;;;;32.92;8.95;;;;;;;2.18;99.12;100323.28;4933854;29;20167;-45
2022/01/31 11:38:55;;;;;;;30.85;8.60;;;;;;;2.10;99.57;100320.75;4933693;29;20183;-45
2022/01/31 11:41:21;;;;;;;28.63;9.38;;;;;;;2.26;98.69;100332.00;4933673;29;20190;-43
2022/01/31 11:43:56;;;;;;;25.60;8.77;;;;;;;2.24;97.70;100317.94;4932806;29;20176;-47
2022/01/31 11:46:24;;;;;;;26.40;8.27;;;;;;;2.26;97.23;100326.72;4933273;29;20207;-45
2022/01/31 11:48:53;;;;;;;26.98;8.45;;;;;;;2.34;97.26;100340.72;4933845;29;20250;-44
2022/01/31 11:51:20;;;;;;;33.92;9.60;;;;;;;2.32;96.97;100341.63;4933465;29;20200;-42